Time;durP1;ratioP1;P1;durP2;ratioP2;P2;SDS_P1;SDS_P2;PMS_P1;PMS_P2;Temp;Humidity;BMP_temperature;BMP_pressure;BME280_temperature;BME280_humidity;BME280_pressure;Samples;Min_cycle;Max_cycle;Signal;HPM_P1;HPM_P2
2024/02/14 00:00:13;;;;;;;5.38;3.08;;;6.30;99.90;;;;;;4971325;28;20102;-85
2024/02/14 00:02:43;;;;;;;8.52;3.97;;;6.00;94.70;;;;;;4970854;28;20485;-85
2024/02/14 00:05:10;;;;;;;16.33;4.45;;;;;;;;;;4959394;28;20042;-85
2024/02/14 00:07:37;;;;;;;8.63;2.70;;;;;;;;;;4971686;28;20031;-85
2024/02/14 00:10:03;;;;;;;14.25;3.50;;;;;;;;;;4970932;28;20469;-86
2024/02/14 00:12:28;;;;;;;6.07;3.53;;;6.20;99.90;;;;;;4970700;28;20022;-86
2024/02/14 00:14:54;;;;;;;9.68;3.90;;;;;;;;;;4971373;28;20029;-85
2024/02/14 00:17:21;;;;;;;4.80;3.33;;;;;;;;;;4970673;28;20484;-86
2024/02/14 00:19:47;;;;;;;6.75;3.35;;;;;;;;;;4971197;28;20050;-85
2024/02/14 00:22:13;;;;;;;12.50;4.00;;;;;;;;;;4971035;28;20286;-84
2024/02/14 00:24:39;;;;;;;6.60;2.83;;;;;;;;;;4970925;28;20091;-86
2024/02/14 00:27:06;;;;;;;6.55;3.47;;;;;;;;;;4970150;28;20030;-85
2024/02/14 00:29:34;;;;;;;8.93;3.83;;;;;;;;;;4971082;28;20487;-85
2024/02/14 00:32:00;;;;;;;9.23;3.40;;;;;;;;;;4971435;28;20042;-86
2024/02/14 00:34:26;;;;;;;8.45;5.60;;;;;;;;;;4971374;28;20038;-85
2024/02/14 00:36:52;;;;;;;8.75;3.63;;;;;;;;;;4970724;28;20023;-86
2024/02/14 00:39:18;;;;;;;9.73;3.97;;;;;;;;;;4971022;28;20038;-85
2024/02/14 00:41:44;;;;;;;9.27;4.22;;;;;;;;;;4970337;28;20496;-85
2024/02/14 00:44:10;;;;;;;10.18;2.55;;;;;;;;;;4971213;28;20050;-85
2024/02/14 00:46:36;;;;;;;5.03;3.10;;;;;;;;;;4970087;28;20038;-85
2024/02/14 00:49:02;;;;;;;7.55;3.22;;;;;;;;;;4970829;28;20022;-85
2024/02/14 00:51:28;;;;;;;8.20;3.33;;;;;;;;;;4971059;28;20023;-85
2024/02/14 00:53:54;;;;;;;9.40;4.60;;;;;;;;;;4971454;28;20111;-86
2024/02/14 00:56:20;;;;;;;6.85;2.85;;;;;;;;;;4970031;28;20050;-85
2024/02/14 00:58:46;;;;;;;5.70;3.70;;;;;;;;;;4970870;28;20085;-85
2024/02/14 01:01:12;;;;;;;8.18;3.75;;;;;;;;;;4970503;28;20027;-87
2024/02/14 01:03:38;;;;;;;10.82;3.38;;;;;;;;;;4970891;28;20030;-86
2024/02/14 01:06:03;;;;;;;9.18;3.60;;;6.60;96.70;;;;;;4970220;28;20030;-85
2024/02/14 01:08:30;;;;;;;7.97;3.55;;;;;;;;;;4970653;28;20031;-85
2024/02/14 01:10:56;;;;;;;6.28;3.05;;;;;;;;;;4969415;28;20050;-85
2024/02/14 01:13:22;;;;;;;10.57;4.38;;;;;;;;;;4970689;28;20465;-85
2024/02/14 01:15:48;;;;;;;10.43;4.28;;;;;;;;;;4970758;28;20041;-85
2024/02/14 01:18:14;;;;;;;8.80;3.72;;;;;;;;;;4969422;28;20027;-85
2024/02/14 01:20:40;;;;;;;8.52;3.25;;;;;;;;;;4970620;28;20026;-85
2024/02/14 01:23:06;;;;;;;13.70;4.45;;;;;;;;;;4970240;28;20066;-85
2024/02/14 01:25:32;;;;;;;7.07;3.78;;;;;;;;;;4970283;28;20065;-85
2024/02/14 01:27:59;;;;;;;9.50;4.15;;;6.60;96.60;;;;;;4970755;28;20034;-86
2024/02/14 01:30:26;;;;;;;5.68;3.28;;;;;;;;;;4970527;28;20110;-85
2024/02/14 01:32:53;;;;;;;6.90;2.65;;;;;;;;;;4970973;28;20031;-85
2024/02/14 01:35:19;;;;;;;5.07;3.15;;;;;;;;;;4970408;28;20023;-85
2024/02/14 01:37:46;;;;;;;5.18;2.92;;;;;;;;;;4971249;28;20042;-85
2024/02/14 01:40:12;;;;;;;8.87;2.70;;;6.40;99.90;;;;;;4971502;28;20027;-85
2024/02/14 01:42:37;;;;;;;5.07;3.10;;;;;;;;;;4973376;28;20484;-85
2024/02/14 01:45:04;;;;;;;8.27;3.63;;;;;;;;;;4973589;28;20047;-90
2024/02/14 01:47:32;;;;;;;8.40;3.92;;;6.40;98.10;;;;;;4973943;28;20030;-85
2024/02/14 01:49:58;;;;;;;8.35;3.58;;;;;;;;;;4973846;28;20035;-85
2024/02/14 01:52:24;;;;;;;8.03;4.23;;;;;;;;;;4973493;28;20042;-85
2024/02/14 01:54:51;;;;;;;13.75;3.13;;;5.90;96.00;;;;;;4962270;28;20385;-85
2024/02/14 01:57:17;;;;;;;7.65;3.97;;;;;;;;;;4973536;28;20014;-85
2024/02/14 01:59:43;;;;;;;8.57;3.78;;;;;;;;;;4973392;28;20468;-85
2024/02/14 02:02:09;;;;;;;6.57;3.40;;;;;;;;;;4973281;28;20088;-85
2024/02/14 02:04:36;;;;;;;5.55;3.28;;;;;;;;;;4972831;28;20412;-85
2024/02/14 02:07:02;;;;;;;10.93;3.80;;;;;;;;;;4973739;28;20027;-85
2024/02/14 02:09:28;;;;;;;6.40;3.42;;;;;;;;;;4973089;28;20034;-85
2024/02/14 02:11:55;;;;;;;13.60;3.85;;;;;;;;;;4964265;28;20031;-85
2024/02/14 02:14:21;;;;;;;;;;;5.70;98.00;;;;;;4970417;28;20026;-85
2024/02/14 02:16:48;;;;;;;4.15;2.50;;;;;;;;;;4973121;28;20267;-85
2024/02/14 02:19:14;;;;;;;15.57;5.15;;;;;;;;;;4970994;28;20031;-85
2024/02/14 02:21:45;;;;;;;5.05;3.25;;;5.50;99.60;;;;;;4962900;28;20035;-85
2024/02/14 02:24:12;;;;;;;8.02;2.97;;;;;;;;;;4973090;28;20592;-84
2024/02/14 02:26:38;;;;;;;5.53;3.13;;;;;;;;;;4972899;28;20027;-85
2024/02/14 02:29:05;;;;;;;6.72;3.00;;;;;;;;;;4971521;28;20046;-85
2024/02/14 02:31:31;;;;;;;6.03;2.85;;;5.60;99.70;;;;;;4973388;28;20055;-85
2024/02/14 02:33:57;;;;;;;6.88;2.88;;;;;;;;;;4972952;28;20347;-85
2024/02/14 02:36:24;;;;;;;8.85;3.55;;;;;;;;;;4972777;28;20031;-85
2024/02/14 02:38:51;;;;;;;4.20;3.40;;;;;;;;;;4960374;28;20081;-85
2024/02/14 02:41:17;;;;;;;19.75;3.97;;;;;;;;;;4972867;28;20062;-85
2024/02/14 02:43:43;;;;;;;5.03;3.10;;;5.50;99.90;;;;;;4972358;28;20038;-85
2024/02/14 02:46:11;;;;;;;6.00;4.43;;;5.00;99.90;;;;;;4972372;28;20039;-85
2024/02/14 02:48:37;;;;;;;9.73;3.55;;;;;;;;;;4972502;28;20023;-85
2024/02/14 02:51:04;;;;;;;6.30;3.83;;;;;;;;;;4971338;28;20026;-85
2024/02/14 02:53:30;;;;;;;8.35;3.45;;;;;;;;;;4972136;28;20031;-84
2024/02/14 02:55:57;;;;;;;9.00;3.13;;;;;;;;;;4972745;28;20110;-85
2024/02/14 02:58:23;;;;;;;6.47;2.45;;;;;;;;;;4973030;28;20034;-85
2024/02/14 03:00:49;;;;;;;8.23;3.97;;;5.40;99.90;;;;;;4972707;28;20093;-85
2024/02/14 03:03:16;;;;;;;9.93;4.72;;;;;;;;;;4972122;28;20023;-85
2024/02/14 03:05:44;;;;;;;9.55;4.63;;;;;;;;;;4972502;28;20035;-85
2024/02/14 03:08:13;;;;;;;12.15;5.82;;;;;;;;;;4972593;28;20037;-85
2024/02/14 03:10:40;;;;;;;8.55;4.55;;;;;;;;;;4971755;28;20043;-85
2024/02/14 03:13:09;;;;;;;6.97;3.22;;;;;;;;;;4972205;28;20121;-85
2024/02/14 03:15:35;;;;;;;6.30;3.25;;;;;;;;;;4967605;28;20496;-85
2024/02/14 03:18:01;;;;;;;1.85;1.63;;;5.60;99.90;;;;;;4969802;28;20488;-85
2024/02/14 03:20:29;;;;;;;4.80;3.58;;;;;;;;;;4971672;28;20069;-85
2024/02/14 03:22:55;;;;;;;9.88;2.97;;;;;;;;;;4971757;28;20069;-85
2024/02/14 03:25:21;;;;;;;5.05;2.05;;;;;;;;;;4970157;28;20035;-85
2024/02/14 03:27:51;;;;;;;2.80;2.50;;;5.70;99.90;;;;;;4967300;28;20408;-85
2024/02/14 03:30:17;;;;;;;8.77;3.13;;;;;;;;;;4968837;28;20082;-85
2024/02/14 03:32:43;;;;;;;4.60;2.65;;;5.60;99.90;;;;;;4972301;28;20023;-85
2024/02/14 03:35:10;;;;;;;2.60;2.13;;;5.70;99.90;;;;;;4971488;28;20420;-84
2024/02/14 03:37:39;;;;;;;;;;;5.70;99.50;;;;;;4972371;28;20073;-85
2024/02/14 03:40:06;;;;;;;2.75;1.80;;;;;;;;;;4971626;28;20383;-85
2024/02/14 03:42:34;;;;;;;6.45;2.65;;;5.60;99.90;;;;;;4967246;28;20400;-85
2024/02/14 03:45:05;;;;;;;3.53;2.47;;;;;;;;;;4965873;28;20054;-85
2024/02/14 03:47:32;;;;;;;7.53;3.97;;;;;;;;;;4971434;28;20034;-85
2024/02/14 03:49:58;;;;;;;4.65;2.67;;;5.60;99.90;;;;;;4971300;28;20030;-85
2024/02/14 03:52:25;;;;;;;4.65;2.95;;;;;;;;;;4971309;28;20031;-85
2024/02/14 03:54:51;;;;;;;6.15;3.67;;;;;;;;;;4964761;28;20027;-85
2024/02/14 03:57:17;;;;;;;3.25;2.60;;;5.80;99.90;;;;;;4966662;28;20026;-85
2024/02/14 03:59:44;;;;;;;9.77;3.87;;;;;;;;;;4971298;28;20042;-85
2024/02/14 04:02:10;;;;;;;2.70;1.75;;;6.20;99.90;;;;;;4970710;28;20768;-85
2024/02/14 04:04:41;;;;;;;5.65;2.92;;;6.10;99.90;;;;;;4971129;28;20082;-85
2024/02/14 04:07:11;;;;;;;9.20;4.05;;;;;;;;;;4971222;28;20027;-84
2024/02/14 04:09:37;;;;;;;6.05;2.80;;;;;;;;;;4971314;28;20411;-85
2024/02/14 04:12:03;;;;;;;12.63;3.40;;;5.60;99.90;;;;;;4971432;28;20034;-85
2024/02/14 04:14:29;;;;;;;6.90;2.90;;;;;;;;;;4971119;28;20027;-85
2024/02/14 04:16:55;;;;;;;3.83;2.33;;;;;;;;;;4970963;28;20723;-85
2024/02/14 04:19:21;;;;;;;5.15;2.40;;;;;;;;;;4970807;28;20499;-85
2024/02/14 04:21:48;;;;;;;6.47;3.33;;;;;;;;;;4970903;28;20539;-85
2024/02/14 04:24:14;;;;;;;3.63;1.95;;;;;;;;;;4970791;28;20551;-85
2024/02/14 04:26:40;;;;;;;3.33;2.10;;;;;;;;;;4970654;28;20038;-84
2024/02/14 04:29:07;;;;;;;1.92;1.42;;;5.30;99.90;;;;;;4971617;28;20030;-85
2024/02/14 04:31:33;;;;;;;4.93;1.33;;;;;;;;;;4968121;28;20114;-85
2024/02/14 04:34:00;;;;;;;4.63;1.65;;;;;;;;;;4961761;28;20105;-85
2024/02/14 04:36:26;;;;;;;9.80;1.83;;;;;;;;;;4970755;28;20034;-85
2024/02/14 04:38:53;;;;;;;3.50;2.20;;;5.80;99.90;;;;;;4971535;28;20361;-85
2024/02/14 04:41:19;;;;;;;4.57;1.63;;;;;;;;;;4970415;28;20530;-85
2024/02/14 04:43:45;;;;;;;7.50;2.88;;;;;;;;;;4971307;28;20460;-84
2024/02/14 04:46:11;;;;;;;11.45;3.05;;;;;;;;;;4969407;28;20293;-85
2024/02/14 04:48:37;;;;;;;4.72;2.28;;;5.80;99.90;;;;;;4970990;28;20097;-85
2024/02/14 04:51:04;;;;;;;4.70;2.05;;;5.70;99.90;;;;;;4967798;28;20023;-85
2024/02/14 04:53:30;;;;;;;2.65;2.10;;;;;;;;;;4965107;28;20754;-85
2024/02/14 04:55:56;;;;;;;4.28;2.17;;;;;;;;;;4970598;28;20023;-85
2024/02/14 04:58:23;;;;;;;2.58;1.17;;;;;;;;;;4970827;28;20039;-85
2024/02/14 05:00:49;;;;;;;8.70;2.05;;;;;;;;;;4970961;28;20019;-84
2024/02/14 05:03:15;;;;;;;2.63;1.70;;;;;;;;;;4970943;28;20122;-85
2024/02/14 05:05:41;;;;;;;5.20;2.90;;;6.10;99.90;;;;;;4970479;28;20202;-85
2024/02/14 05:08:07;;;;;;;3.85;2.05;;;;;;;;;;4970461;28;20499;-85
2024/02/14 05:10:33;;;;;;;6.72;3.00;;;;;;;;;;4970410;28;20027;-85
2024/02/14 05:13:01;;;;;;;4.13;2.55;;;;;;;;;;4970626;28;20038;-84
2024/02/14 05:15:27;;;;;;;12.23;2.38;;;;;;;;;;4972811;28;20050;-84
2024/02/14 05:17:53;;;;;;;2.42;2.15;;;;;;;;;;4973611;28;20061;-85
2024/02/14 05:20:19;;;;;;;3.60;1.85;;;;;;;;;;4973588;28;20042;-85
2024/02/14 05:22:45;;;;;;;5.60;2.20;;;;;;;;;;4974733;28;20026;-85
2024/02/14 05:25:11;;;;;;;4.30;2.30;;;;;;;;;;4974279;28;20042;-85
2024/02/14 05:27:37;;;;;;;3.30;2.28;;;4.90;99.90;;;;;;4974078;28;20027;-84
2024/02/14 05:30:05;;;;;;;3.47;2.47;;;5.00;99.90;;;;;;4973924;28;20097;-85
2024/02/14 05:32:34;;;;;;;3.72;2.33;;;5.10;99.90;;;;;;4974277;28;20027;-85
2024/02/14 05:35:00;;;;;;;5.75;2.60;;;;;;;;;;4973306;28;20023;-84
2024/02/14 05:37:28;;;;;;;3.97;2.28;;;;;;;;;;4973977;28;20034;-84
2024/02/14 05:39:54;;;;;;;15.52;2.53;;;4.50;99.90;;;;;;4973444;28;20034;-85
2024/02/14 05:42:21;;;;;;;5.30;2.75;;;;;;;;;;4988712;28;20027;-85
2024/02/14 05:44:47;;;;;;;4.40;2.80;;;;;;;;;;4973333;28;20049;-85
2024/02/14 05:47:13;;;;;;;4.30;3.33;;;4.10;99.90;;;;;;4974099;28;20030;-85
2024/02/14 05:49:41;;;;;;;4.45;2.05;;;4.40;99.90;;;;;;4973386;28;20034;-85
2024/02/14 05:52:08;;;;;;;7.30;2.72;;;;;;;;;;4973666;28;20034;-84
2024/02/14 05:54:34;;;;;;;2.65;2.45;;;;;;;;;;4969611;28;20407;-85
2024/02/14 05:57:01;;;;;;;9.05;3.40;;;4.50;99.90;;;;;;4968457;28;20027;-85
2024/02/14 05:59:26;;;;;;;5.07;2.70;;;4.20;99.90;;;;;;4973177;28;20026;-85
2024/02/14 06:01:53;;;;;;;4.85;2.92;;;;;;;;;;4974224;28;20097;-85
2024/02/14 06:04:18;;;;;;;4.97;1.90;;;4.10;99.90;;;;;;4973185;28;20387;-84
2024/02/14 06:06:44;;;;;;;3.17;2.25;;;;;;;;;;4973446;28;20031;-85
2024/02/14 06:09:11;;;;;;;3.40;2.60;;;;;;;;;;4973068;28;20030;-85
2024/02/14 06:11:38;;;;;;;6.93;2.73;;;;;;;;;;4973212;28;20062;-85
2024/02/14 06:14:05;;;;;;;3.00;1.73;;;4.00;99.90;;;;;;4973018;28;20338;-85
2024/02/14 06:16:32;;;;;;;5.28;2.20;;;4.10;99.90;;;;;;4973242;28;20026;-85
2024/02/14 06:18:58;;;;;;;10.00;2.53;;;;;;;;;;4973877;28;20034;-85
2024/02/14 06:21:25;;;;;;;6.20;1.77;;;;;;;;;;4973252;28;20101;-85
2024/02/14 06:23:51;;;;;;;2.78;2.22;;;;;;;;;;4973903;28;20105;-85
2024/02/14 06:26:17;;;;;;;2.65;2.25;;;4.10;99.90;;;;;;4972915;28;20225;-84
2024/02/14 06:28:44;;;;;;;6.03;2.58;;;4.90;99.90;;;;;;4973463;28;20110;-82
2024/02/14 06:31:10;;;;;;;3.97;3.25;;;;;;;;;;4968794;28;20019;-82
2024/02/14 06:33:36;;;;;;;7.75;3.03;;;;;;;;;;4970724;28;20038;-81
2024/02/14 06:36:02;;;;;;;5.45;3.03;;;4.20;99.90;;;;;;4970830;28;20031;-82
2024/02/14 06:38:28;;;;;;;5.68;2.55;;;;;;;;;;4970723;28;20026;-82
2024/02/14 06:40:54;;;;;;;2.97;2.00;;;3.80;99.90;;;;;;4970298;28;20077;-82
2024/02/14 06:43:20;;;;;;;3.72;2.67;;;;;;;;;;4967309;28;20541;-82
2024/02/14 06:45:46;;;;;;;3.83;2.38;;;;;;;;;;4969683;28;20149;-82
2024/02/14 06:48:12;;;;;;;3.28;2.15;;;3.60;99.90;;;;;;4970849;28;20030;-82
2024/02/14 06:50:38;;;;;;;3.95;1.65;;;;;;;;;;4970137;28;20027;-79
2024/02/14 06:53:04;;;;;;;2.05;1.80;;;4.20;99.90;;;;;;4960327;28;20031;-74
2024/02/14 06:55:31;;;;;;;2.90;2.60;;;;;;;;;;4970442;28;20050;-77
2024/02/14 06:57:58;;;;;;;8.32;4.32;;;;;;;;;;4960938;28;20018;-77
2024/02/14 07:00:23;;;;;;;15.93;7.00;;;4.30;99.90;;;;;;4969469;28;20141;-78
2024/02/14 07:02:49;;;;;;;15.32;5.72;;;;;;;;;;4970573;28;20158;-77
2024/02/14 07:05:16;;;;;;;5.95;2.80;;;;;;;;;;4970716;28;20030;-78
2024/02/14 07:07:41;;;;;;;3.40;2.50;;;4.40;99.90;;;;;;4965159;28;20034;-78
2024/02/14 07:10:08;;;;;;;4.65;2.80;;;4.70;99.90;;;;;;4967030;28;20019;-77
2024/02/14 07:12:35;;;;;;;6.82;3.10;;;;;;;;;;4969798;28;20109;-77
2024/02/14 07:15:02;;;;;;;2.45;2.10;;;;;;;;;;4965066;28;20497;-77
2024/02/14 07:17:28;;;;;;;5.30;3.35;;;;;;;;;;4956583;28;20054;-76
2024/02/14 07:19:53;;;;;;;3.97;2.80;;;;;;;;;;4965409;28;20149;-84
2024/02/14 07:22:19;;;;;;;3.47;2.00;;;;;;;;;;4966489;28;20397;-84
2024/02/14 07:24:46;;;;;;;2.88;2.17;;;;;;;;;;4967147;28;20050;-87
2024/02/14 07:27:12;;;;;;;1.75;1.65;;;6.20;99.90;;;;;;4967748;28;20147;-85
2024/02/14 07:29:38;;;;;;;10.60;4.20;;;6.30;99.90;;;;;;4968301;28;20586;-85
2024/02/14 07:32:04;;;;;;;13.13;5.70;;;;;;;;;;4967217;28;20030;-74
2024/02/14 07:34:30;;;;;;;15.27;5.72;;;;;;;;;;4966092;28;20622;-75
2024/02/14 07:36:56;;;;;;;10.38;4.50;;;;;;;;;;4966407;28;20018;-75
2024/02/14 07:39:22;;;;;;;12.82;3.85;;;;;;;;;;4966568;28;20069;-74
2024/02/14 07:41:49;;;;;;;8.70;4.43;;;;;;;;;;4966095;28;20018;-75
2024/02/14 07:44:15;;;;;;;9.43;4.83;;;;;;;;;;4967387;28;20066;-78
2024/02/14 07:46:41;;;;;;;8.27;4.05;;;;;;;;;;4963935;28;20081;-80
2024/02/14 07:49:08;;;;;;;3.60;3.10;;;;;;;;;;4968137;28;20202;-79
2024/02/14 07:51:36;;;;;;;11.52;4.38;;;;;;;;;;4966757;28;20546;-79
2024/02/14 07:54:06;;;;;;;12.70;7.32;;;5.20;99.90;;;;;;4965115;28;20527;-74
2024/02/14 07:56:32;;;;;;;25.80;8.85;;;;;;;;;;4960858;28;20042;-76
2024/02/14 07:58:58;;;;;;;21.05;8.43;;;6.30;99.90;;;;;;4966027;28;20027;-73
2024/02/14 08:01:24;;;;;;;7.78;4.80;;;;;;;;;;4966354;28;20503;-73
2024/02/14 08:03:49;;;;;;;31.10;11.82;;;18.60;90.40;;;;;;4966620;28;20382;-76
2024/02/14 08:06:15;;;;;;;9.45;5.57;;;;;;;;;;4961965;28;20026;-74
2024/02/14 08:08:43;;;;;;;7.00;4.35;;;;;;;;;;4966019;28;20464;-74
2024/02/14 08:11:09;;;;;;;4.95;4.22;;;;;;;;;;4966623;28;20046;-76
2024/02/14 08:13:36;;;;;;;4.00;2.53;;;;;;;;;;4966729;28;20150;-78
2024/02/14 08:16:03;;;;;;;4.90;4.22;;;;;;;;;;4953224;28;20038;-79
2024/02/14 08:18:29;;;;;;;3.90;2.40;;;;;;;;;;4964762;28;20081;-79
2024/02/14 08:20:55;;;;;;;5.10;2.83;;;;;;;;;;4967263;28;20038;-74
2024/02/14 08:23:20;;;;;;;4.75;2.28;;;36.40;43.20;;;;;;4966803;28;20098;-74
2024/02/14 08:25:46;;;;;;;3.60;2.88;;;37.20;37.80;;;;;;4962161;28;20145;-76
2024/02/14 08:28:12;;;;;;;5.95;3.50;;;37.90;37.80;;;;;;4964929;28;20027;-77
2024/02/14 08:30:38;;;;;;;5.30;3.88;;;;;;;;;;4967653;28;20041;-81
2024/02/14 08:33:04;;;;;;;6.40;4.97;;;38.80;44.30;;;;;;4966760;28;20089;-76
2024/02/14 08:35:30;;;;;;;7.60;3.93;;;;;;;;;;4963142;28;20053;-78
2024/02/14 08:37:56;;;;;;;6.20;3.33;;;;;;;;;;4966490;28;20109;-79
2024/02/14 08:40:22;;;;;;;6.05;3.22;;;;;;;;;;4967167;28;20513;-78
2024/02/14 08:42:48;;;;;;;5.28;2.97;;;;;;;;;;4966155;28;20041;-78
2024/02/14 08:45:14;;;;;;;5.72;3.35;;;;;;;;;;4963019;28;20055;-78
2024/02/14 08:47:40;;;;;;;5.47;3.20;;;;;;;;;;4964337;28;20511;-78
2024/02/14 08:50:06;;;;;;;4.03;3.13;;;41.30;42.40;;;;;;4970167;28;20054;-77
2024/02/14 08:52:32;;;;;;;8.18;2.58;;;;;;;;;;4968991;28;20026;-79
2024/02/14 08:54:58;;;;;;;3.33;2.65;;;;;;;;;;4965444;28;20039;-79
2024/02/14 08:57:26;;;;;;;4.85;2.60;;;;;;;;;;4969270;28;20035;-78
2024/02/14 08:59:52;;;;;;;3.78;2.53;;;;;;;;;;4970766;28;20153;-79
2024/02/14 09:02:18;;;;;;;6.75;3.10;;;;;;;;;;4969986;28;20113;-79
2024/02/14 09:04:44;;;;;;;4.38;2.03;;;;;;;;;;4966364;28;20066;-76
2024/02/14 09:07:10;;;;;;;10.15;2.05;;;;;;;;;;4969149;28;20068;-80
2024/02/14 09:09:37;;;;;;;5.72;2.00;;;;;;;;;;4970673;28;20185;-77
2024/02/14 09:12:04;;;;;;;4.55;2.53;;;;;;;;;;4969392;28;20027;-78
2024/02/14 09:14:30;;;;;;;5.00;2.97;;;;;;;;;;4969090;28;20045;-78
2024/02/14 09:16:56;;;;;;;6.03;2.42;;;42.60;37.40;;;;;;4997583;28;20046;-77
2024/02/14 09:19:22;;;;;;;5.03;2.65;;;;;;;;;;4969830;28;20047;-77
2024/02/14 09:21:48;;;;;;;5.07;2.08;;;;;;;;;;4969721;28;20041;-77
2024/02/14 09:24:14;;;;;;;2.88;2.58;;;44.00;37.50;;;;;;4970830;28;20042;-77
2024/02/14 09:26:40;;;;;;;5.30;2.60;;;;;;;;;;4964589;28;20027;-78
2024/02/14 09:29:06;;;;;;;10.05;6.07;;;;;;;;;;4969067;28;20590;-77
2024/02/14 09:31:32;;;;;;;5.45;3.40;;;;;;;;;;4969353;28;20090;-78
2024/02/14 09:33:58;;;;;;;5.35;2.72;;;;;;;;;;4970281;28;20636;-78
2024/02/14 09:36:24;;;;;;;3.28;2.47;;;38.30;29.20;;;;;;4964612;28;20035;-78
2024/02/14 09:38:51;;;;;;;5.25;2.65;;;39.50;35.30;;;;;;4968363;28;20037;-77
2024/02/14 09:41:29;;;;;;;4.07;2.05;;;40.30;25.70;;;;;;4969169;28;20118;-77
2024/02/14 09:43:56;;;;;;;6.03;2.30;;;;;;;;;;4968394;28;20458;-74
2024/02/14 09:46:25;;;;;;;4.38;2.45;;;42.50;25.20;;;;;;4966290;28;20121;-80
2024/02/14 09:48:53;;;;;;;6.63;3.65;;;43.10;25.10;;;;;;4969584;28;20404;-77
2024/02/14 09:51:19;;;;;;;4.93;3.08;;;;;;;;;;4968067;28;20030;-78
2024/02/14 09:53:46;;;;;;;3.72;1.88;;;;;;;;;;4969923;28;20038;-80
2024/02/14 09:56:13;;;;;;;1.77;1.35;;;;;;;;;;4965440;28;20034;-79
2024/02/14 09:58:40;;;;;;;2.97;1.25;;;44.00;24.50;;;;;;4967562;28;20022;-77
2024/02/14 10:01:06;;;;;;;6.03;1.65;;;44.90;35.10;;;;;;4968971;28;20049;-76
2024/02/14 10:03:32;;;;;;;1.33;0.57;;;;;;;;;;4968947;28;20034;-75
2024/02/14 10:05:58;;;;;;;2.63;1.15;;;;;;;;;;4965633;28;20039;-76
2024/02/14 10:08:26;;;;;;;1.33;0.82;;;37.10;25.10;;;;;;4966536;28;20046;-76
2024/02/14 10:10:52;;;;;;;0.95;0.50;;;35.70;32.70;;;;;;4967154;28;20055;-76
2024/02/14 10:13:18;;;;;;;;;;;35.70;25.70;;;;;;4969383;28;20069;-76
2024/02/14 10:15:44;;;;;;;1.30;0.55;;;;;;;;;;4964940;28;19953;-76
2024/02/14 10:18:10;;;;;;;1.30;0.65;;;;;;;;;;4967745;28;20038;-76
2024/02/14 10:20:41;;;;;;;2.33;0.90;;;;;;;;;;4967917;28;20030;-78
2024/02/14 10:23:12;;;;;;;2.40;0.90;;;32.50;26.60;;;;;;4969653;28;20035;-76
2024/02/14 10:25:38;;;;;;;1.40;0.47;;;;;;;;;;4964563;28;20034;-76
2024/02/14 10:28:08;;;;;;;1.95;0.68;;;31.20;29.80;;;;;;4968729;28;20395;-74
2024/02/14 10:30:35;;;;;;;2.22;0.73;;;29.70;27.70;;;;;;4966358;28;20042;-77
2024/02/14 10:33:03;;;;;;;1.73;1.00;;;28.50;28.20;;;;;;4969430;28;20500;-78
2024/02/14 10:35:31;;;;;;;2.35;1.15;;;27.80;28.70;;;;;;4965103;28;20578;-76
2024/02/14 10:38:00;;;;;;;1.88;0.85;;;26.90;28.90;;;;;;4967938;28;20064;-76
2024/02/14 10:40:28;;;;;;;1.92;1.05;;;25.90;29.60;;;;;;4968417;28;20035;-75
2024/02/14 10:42:58;;;;;;;2.35;0.65;;;25.40;44.20;;;;;;4968450;28;20082;-77
2024/02/14 10:45:24;;;;;;;1.77;0.77;;;;;;;;;;4965559;28;20093;-78
2024/02/14 10:47:52;;;;;;;3.67;2.08;;;25.20;30.80;;;;;;4965648;28;20031;-77
2024/02/14 10:50:21;;;;;;;1.42;0.90;;;28.00;32.30;;;;;;4967606;28;20035;-77
2024/02/14 10:52:48;;;;;;;1.63;0.65;;;27.80;30.40;;;;;;4967736;28;20045;-79
2024/02/14 10:55:15;;;;;;;;;;;27.80;30.70;;;;;;4965075;28;20085;-75
2024/02/14 10:57:43;;;;;;;4.40;0.63;;;32.40;28.20;;;;;;4967295;28;20866;-78
2024/02/14 11:00:11;;;;;;;1.75;0.40;;;31.60;27.70;;;;;;4968113;28;20038;-80
2024/02/14 11:02:38;;;;;;;2.08;0.45;;;30.00;43.80;;;;;;4967967;28;20567;-78
2024/02/14 11:05:04;;;;;;;1.38;0.32;;;28.70;45.20;;;;;;4962978;28;20066;-77
2024/02/14 11:07:31;;;;;;;1.30;0.52;;;;;;;;;;4966483;28;20572;-78
2024/02/14 11:10:07;;;;;;;6.32;0.75;;;28.70;46.70;;;;;;4957209;28;20122;-78
2024/02/14 11:12:36;;;;;;;0.80;0.30;;;31.70;30.40;;;;;;4965326;28;20033;-78
2024/02/14 11:15:24;;;;;;;1.63;0.68;;;28.60;29.40;;;;;;4964724;28;20258;-77
2024/02/14 11:17:52;;;;;;;0.77;0.40;;;28.10;45.60;;;;;;4964787;28;20479;-78
2024/02/14 11:20:21;;;;;;;1.02;0.65;;;26.60;47.20;;;;;;4967401;28;20041;-77
2024/02/14 11:23:10;;;;;;;1.15;0.57;;;25.20;30.90;;;;;;4965887;28;20484;-78
2024/02/14 11:25:37;;;;;;;0.60;0.45;;;;;;;;;;4959960;28;20073;-78
2024/02/14 11:28:19;;;;;;;0.98;0.40;;;22.70;33.80;;;;;;4966263;28;20130;-77
2024/02/14 11:30:46;;;;;;;1.23;0.60;;;;;;;;;;4966629;28;20336;-77
2024/02/14 11:33:24;;;;;;;0.80;0.70;;;21.40;43.40;;;;;;4967592;28;20026;-78
2024/02/14 11:35:52;;;;;;;1.35;0.70;;;22.20;36.00;;;;;;4963278;28;20026;-78
2024/02/14 11:38:19;;;;;;;0.70;0.52;;;;;;;;;;4965325;28;20507;-78
2024/02/14 11:40:45;;;;;;;1.03;0.37;;;;;;;;;;4966847;28;20167;-78
2024/02/14 11:43:16;;;;;;;0.80;0.65;;;27.00;32.20;;;;;;4963251;28;20058;-77
2024/02/14 11:45:43;;;;;;;2.42;0.98;;;27.10;31.20;;;;;;4963424;28;20046;-77
2024/02/14 11:48:13;;;;;;;0.73;0.60;;;27.50;32.50;;;;;;4965672;28;20519;-77
2024/02/14 11:50:40;;;;;;;0.73;0.40;;;26.30;32.20;;;;;;4965990;28;20023;-77
2024/02/14 11:53:09;;;;;;;0.85;0.50;;;;;;;;;;4966416;28;20122;-77
2024/02/14 11:55:40;;;;;;;0.57;0.50;;;25.70;33.10;;;;;;4963328;28;20464;-78
2024/02/14 11:58:10;;;;;;;0.95;0.50;;;26.50;50.90;;;;;;4966611;28;20033;-77
2024/02/14 12:00:46;;;;;;;0.73;0.40;;;26.20;39.20;;;;;;4966068;28;20035;-78
2024/02/14 12:03:20;;;;;;;0.68;0.40;;;26.10;34.00;;;;;;4966131;28;20567;-77
2024/02/14 12:05:47;;;;;;;2.25;0.40;;;25.80;33.70;;;;;;4962726;28;20034;-77
2024/02/14 12:08:14;;;;;;;0.73;0.25;;;25.90;33.70;;;;;;4966613;28;20413;-78
2024/02/14 12:10:42;;;;;;;;;;;26.10;34.10;;;;;;4965409;28;20070;-78
2024/02/14 12:13:12;;;;;;;5.60;0.40;;;26.20;34.60;;;;;;4965336;28;20292;-78
2024/02/14 12:15:48;;;;;;;0.82;0.40;;;26.60;33.60;;;;;;4962087;28;20030;-78
2024/02/14 12:18:14;;;;;;;0.33;0.33;;;;;;;;;;4965478;28;20027;-78
2024/02/14 12:20:40;;;;;;;1.52;0.30;;;;;;;;;;4966095;28;20063;-78
2024/02/14 12:23:06;;;;;;;0.57;0.30;;;;;;;;;;4966813;28;20030;-77
2024/02/14 12:25:33;;;;;;;2.83;0.80;;;;;;;;;;4962010;28;20039;-77
2024/02/14 12:28:00;;;;;;;1.38;0.40;;;;;;;;;;4961249;28;20031;-78
2024/02/14 12:30:49;;;;;;;0.63;0.30;;;23.60;36.40;;;;;;4965076;28;20023;-77
2024/02/14 12:33:16;;;;;;;0.70;0.30;;;23.80;36.50;;;;;;4966588;28;20433;-77
2024/02/14 12:35:46;;;;;;;0.65;0.45;;;23.70;54.60;;;;;;4961462;28;20023;-77
2024/02/14 12:38:12;;;;;;;1.27;0.50;;;;;;;;;;4966280;28;20031;-77
2024/02/14 12:40:41;;;;;;;0.30;0.30;;;23.80;36.70;;;;;;4966395;28;20530;-78
2024/02/14 12:43:08;;;;;;;0.43;0.30;;;;;;;;;;4965334;28;20125;-78
2024/02/14 12:45:34;;;;;;;0.80;0.40;;;;;;;;;;4959773;28;20065;-77
2024/02/14 12:48:01;;;;;;;1.02;0.38;;;;;;;;;;4963370;28;20101;-78
2024/02/14 12:50:27;;;;;;;5.45;0.40;;;;;;;;;;4966319;28;20058;-78
2024/02/14 12:52:53;;;;;;;0.50;0.20;;;;;;;;;;4965037;28;20031;-78
2024/02/14 12:55:19;;;;;;;0.73;0.22;;;;;;;;;;4959124;28;20117;-78
2024/02/14 12:57:45;;;;;;;0.20;0.20;;;23.00;38.00;;;;;;4964626;28;20231;-78
2024/02/14 13:00:11;;;;;;;0.35;0.20;;;22.20;38.20;;;;;;4965362;28;20468;-79
2024/02/14 13:02:40;;;;;;;0.30;0.30;;;;;;;;;;4964363;28;20041;-78
2024/02/14 13:05:07;;;;;;;2.72;0.35;;;;;;;;;;4960334;28;20184;-79
2024/02/14 13:07:33;;;;;;;0.68;0.40;;;;;;;;;;4963041;28;20031;-79
2024/02/14 13:09:59;;;;;;;0.38;0.30;;;;;;;;;;4965370;28;20042;-79
2024/02/14 13:12:24;;;;;;;0.20;0.20;;;22.30;58.30;;;;;;4964617;28;20039;-79
2024/02/14 13:14:50;;;;;;;1.25;0.30;;;;;;;;;;4962028;28;20038;-79
2024/02/14 13:17:16;;;;;;;0.30;0.30;;;22.00;58.30;;;;;;4962806;28;20101;-80
2024/02/14 13:19:42;;;;;;;0.20;0.20;;;22.10;58.50;;;;;;4967309;28;20030;-80
2024/02/14 13:22:09;;;;;;;0.68;0.35;;;21.80;59.00;;;;;;4964150;28;20023;-80
2024/02/14 13:24:35;;;;;;;0.30;0.30;;;;;;;;;;4963773;28;20507;-80
2024/02/14 13:27:01;;;;;;;2.05;0.30;;;;;;;;;;4976399;28;20439;-80
2024/02/14 13:29:28;;;;;;;0.30;0.30;;;;;;;;;;4966177;28;20027;-80
2024/02/14 13:31:54;;;;;;;0.50;0.50;;;;;;;;;;4965321;28;20017;-80
2024/02/14 13:34:20;;;;;;;0.28;0.28;;;;;;;;;;4966972;28;20026;-81
2024/02/14 13:36:47;;;;;;;0.20;0.20;;;20.50;41.60;;;;;;4961970;28;20489;-79
2024/02/14 13:39:13;;;;;;;0.70;0.40;;;;;;;;;;4984288;28;20058;-82
2024/02/14 13:41:39;;;;;;;1.27;0.38;;;;;;;;;;4970485;28;20039;-81
2024/02/14 13:44:08;;;;;;;0.22;0.20;;;20.20;42.60;;;;;;4967239;28;20145;-83
2024/02/14 13:46:34;;;;;;;0.70;0.50;;;;;;;;;;4960463;28;20035;-84
2024/02/14 13:49:00;;;;;;;0.52;0.20;;;;;;;;;;4968028;28;20428;-83
2024/02/14 13:51:27;;;;;;;1.80;0.70;;;;;;;;;;4967303;28;20031;-82
2024/02/14 13:53:53;;;;;;;1.80;0.52;;;;;;;;;;4968961;28;20027;-81
2024/02/14 13:56:22;;;;;;;1.40;0.40;;;;;;;;;;4962811;28;20022;-79